Khajuraho Airport

Current Flights

Departures
Number Departure To Airline
 AI405 15:15  Varanasi  Air India
 AI405 15:15  Varanasi  Air India
Arrivals
Number Arrival From Airline
 AI406 14:40  Agra  Air India
Info
Name: Khajuraho Airport
Identifier:  HJR/VAKJ
Local Time:  25. May 11:23
City
Khajuraho
  India

Flights per Day
0 flights
Distance: 315km (195mi)
Punctuality
75% (0 flights per day delayed)
Delay Average: 10 minutes
Current Weather
 15 C (Humidity: 76%)
  4kt (7km/h / 4mph) from 250°
  5km (3 mi.)
 METAR VAKJ 080300Z 25004KT 5000 HZ NSC 15/11 Q1015

Current Delays

Departures
N/A
Arrivals
N/A

Destinations

Top Destinations
Airport Flights
per week
Seats
per week
  Agra (AGR) <1 392 0 56

Airlines & Planes

Top Airlines
Airline Flights
per Day
Seats
per Day
  Air India <1 112
Top Plane Types
Manufacturer Model Flights Seats
Airbus A319 0.9/day 112/day 112.93333333333334